createdAt,value
2023-02-23T00:03:13.685Z,4.29
2023-02-23T00:07:19.244Z,4.29
2023-02-23T00:11:21.433Z,4.25
2023-02-23T00:15:26.135Z,4.22
2023-02-23T00:19:27.597Z,4.20
2023-02-23T00:23:29.146Z,4.17
2023-02-23T00:27:30.613Z,4.15
2023-02-23T00:31:32.212Z,4.13
2023-02-23T00:35:33.751Z,4.09
2023-02-23T00:39:35.180Z,4.09
2023-02-23T00:43:38.569Z,4.11
2023-02-23T00:47:41.833Z,4.09
2023-02-23T00:51:43.910Z,4.11
2023-02-23T00:55:45.310Z,4.08
2023-02-23T00:59:46.806Z,4.09
2023-02-23T01:03:48.826Z,4.03
2023-02-23T01:07:50.436Z,4.00
2023-02-23T01:11:52.153Z,3.98
2023-02-23T01:15:53.715Z,3.96
2023-02-23T01:19:55.476Z,3.95
2023-02-23T01:23:57.637Z,3.91
2023-02-23T01:27:59.182Z,3.89
2023-02-23T01:32:03.271Z,3.91
2023-02-23T01:36:07.240Z,3.87
2023-02-23T01:40:14.497Z,3.85
2023-02-23T01:44:19.392Z,3.89
2023-02-23T01:48:28.295Z,3.83
2023-02-23T01:52:30.250Z,3.81
2023-02-23T01:56:35.856Z,3.70
2023-02-23T02:00:37.491Z,3.70
2023-02-23T02:04:48.098Z,3.64
2023-02-23T02:08:54.275Z,3.62
2023-02-23T02:12:57.166Z,3.56
2023-02-23T02:17:34.777Z,3.54
2023-02-23T02:21:47.155Z,3.51
2023-02-23T02:25:59.162Z,3.49
2023-02-23T02:30:03.784Z,3.41
2023-02-23T02:34:23.512Z,3.40
2023-02-23T02:38:50.484Z,3.37
2023-02-23T02:43:21.115Z,3.33
2023-02-23T02:47:29.493Z,3.32
2023-02-23T02:51:38.976Z,3.28
2023-02-23T02:55:43.326Z,3.29
2023-02-23T03:00:05.890Z,3.30
2023-02-23T03:04:41.425Z,3.28
2023-02-23T03:09:18.536Z,3.25
2023-02-23T03:13:38.286Z,3.23
2023-02-23T03:18:05.768Z,3.23
2023-02-23T03:22:31.731Z,3.18
2023-02-23T03:26:54.688Z,3.19
2023-02-23T03:31:32.417Z,3.17
2023-02-23T03:36:12.546Z,3.17
2023-02-23T03:40:46.089Z,3.18
2023-02-23T03:45:09.027Z,3.19
2023-02-23T03:49:31.745Z,3.17
2023-02-23T03:54:21.348Z,3.19
2023-02-23T03:58:51.505Z,3.14
2023-02-23T04:03:12.451Z,3.11
2023-02-23T04:07:36.699Z,3.08
2023-02-23T04:12:08.971Z,3.04
2023-02-23T04:16:11.515Z,3.04
2023-02-23T04:20:13.865Z,3.03
2023-02-23T04:24:15.811Z,3.04
2023-02-23T04:28:18.621Z,3.05
2023-02-23T04:32:21.441Z,2.97
2023-02-23T04:36:24.232Z,2.96
2023-02-23T04:40:29.185Z,3.00
2023-02-23T04:44:31.448Z,3.06
2023-02-23T04:48:33.660Z,3.09
2023-02-23T04:52:37.079Z,3.08
2023-02-23T04:56:39.927Z,3.10
2023-02-23T05:00:42.085Z,3.12
2023-02-23T05:04:44.964Z,3.13
2023-02-23T05:08:47.168Z,3.10
2023-02-23T05:12:49.069Z,3.10
2023-02-23T05:16:52.161Z,3.05
2023-02-23T05:21:00.631Z,3.05
2023-02-23T05:25:04.179Z,2.98
2023-02-23T05:29:06.475Z,2.91
2023-02-23T05:33:10.208Z,2.91
2023-02-23T05:37:13.871Z,2.85
2023-02-23T05:41:19.994Z,2.84
2023-02-23T05:45:22.508Z,2.82
2023-02-23T05:49:24.331Z,2.83
2023-02-23T05:53:26.508Z,2.79
2023-02-23T05:57:29.880Z,2.75
2023-02-23T06:01:32.353Z,2.72
2023-02-23T06:05:34.471Z,2.74
2023-02-23T06:09:37.506Z,2.75
2023-02-23T06:13:39.782Z,2.80
2023-02-23T06:17:41.530Z,2.82
2023-02-23T06:21:44.442Z,2.87
2023-02-23T06:25:49.743Z,2.90
2023-02-23T06:29:52.321Z,2.93
2023-02-23T06:33:55.089Z,2.95
2023-02-23T06:37:56.859Z,3.01
2023-02-23T06:41:59.875Z,3.09
2023-02-23T06:46:02.396Z,3.14
2023-02-23T06:50:06.248Z,3.25
2023-02-23T06:54:10.679Z,3.29
2023-02-23T06:58:12.470Z,3.35
2023-02-23T07:02:14.583Z,3.39
2023-02-23T07:06:16.786Z,3.44
2023-02-23T07:10:18.487Z,3.52
2023-02-23T07:14:26.421Z,3.57
2023-02-23T07:18:29.380Z,3.62
2023-02-23T07:22:31.206Z,3.74
2023-02-23T07:26:33.395Z,3.80
2023-02-23T07:30:36.134Z,3.82
2023-02-23T07:34:39.098Z,3.82
2023-02-23T07:38:41.779Z,3.96
2023-02-23T07:42:44.678Z,4.04
2023-02-23T07:46:46.806Z,4.16
2023-02-23T07:50:48.956Z,4.31
2023-02-23T07:54:51.082Z,4.42
2023-02-23T07:58:53.290Z,4.47
2023-02-23T08:02:55.567Z,4.66
2023-02-23T08:06:58.051Z,4.88
2023-02-23T08:11:00.781Z,5.08
2023-02-23T08:15:07.704Z,5.24
2023-02-23T08:19:09.680Z,5.48
2023-02-23T08:23:12.139Z,5.65
2023-02-23T08:27:14.460Z,5.90
2023-02-23T08:31:19.034Z,5.99
2023-02-23T08:35:22.318Z,6.08
2023-02-23T08:39:24.413Z,6.26
2023-02-23T08:43:26.615Z,6.43
2023-02-23T08:47:29.480Z,6.58
2023-02-23T08:51:34.339Z,6.71
2023-02-23T08:55:37.754Z,6.92
2023-02-23T08:59:40.690Z,7.10
2023-02-23T09:03:42.569Z,7.32
2023-02-23T09:08:02.663Z,7.56
2023-02-23T09:17:18.186Z,8.04
2023-02-23T09:21:24.585Z,8.27
2023-02-23T09:30:17.434Z,8.35
2023-02-23T09:34:20.220Z,8.31
2023-02-23T09:38:27.104Z,8.57
2023-02-23T09:43:26.594Z,8.79
2023-02-23T09:53:33.772Z,9.10
2023-02-23T09:58:12.139Z,9.19
2023-02-23T10:02:47.250Z,9.31
2023-02-23T10:07:04.202Z,9.60
2023-02-23T10:11:26.536Z,9.84
2023-02-23T10:16:08.604Z,9.97
2023-02-23T10:20:48.503Z,10.09
2023-02-23T10:25:26.544Z,10.25
2023-02-23T10:29:59.980Z,10.45
2023-02-23T10:34:05.874Z,10.63
2023-02-23T10:38:14.542Z,10.76
2023-02-23T10:42:22.386Z,10.84
2023-02-23T10:51:02.316Z,11.12
2023-02-23T10:55:04.287Z,11.22
2023-02-23T10:59:20.554Z,11.24
2023-02-23T11:03:52.368Z,11.29
2023-02-23T11:08:30.730Z,11.31
2023-02-23T11:12:37.533Z,11.35
2023-02-23T11:16:39.157Z,11.44
2023-02-23T11:20:42.558Z,11.54
2023-02-23T11:24:45.694Z,11.57
2023-02-23T11:28:54.431Z,11.58
2023-02-23T11:32:58.708Z,11.55
2023-02-23T11:37:23.561Z,11.40
2023-02-23T11:41:24.985Z,11.48
2023-02-23T11:45:32.930Z,11.42
2023-02-23T11:50:00.478Z,11.35
2023-02-23T11:54:05.769Z,11.37
2023-02-23T11:58:35.163Z,11.18
2023-02-23T12:02:57.956Z,11.37
2023-02-23T12:07:20.879Z,11.45
2023-02-23T12:11:28.169Z,11.52
2023-02-23T12:15:55.568Z,11.58
2023-02-23T12:20:31.410Z,11.56
2023-02-23T12:24:44.174Z,11.64
2023-02-23T12:29:14.757Z,11.81
2023-02-23T12:33:51.762Z,12.02
2023-02-23T12:43:33.311Z,12.31
2023-02-23T12:47:43.736Z,12.44
2023-02-23T12:51:51.119Z,12.50
2023-02-23T12:56:14.357Z,12.46
2023-02-23T13:00:32.901Z,12.55
2023-02-23T13:04:53.009Z,12.66
2023-02-23T13:09:26.050Z,12.74
2023-02-23T13:13:51.112Z,12.83
2023-02-23T13:18:00.983Z,12.89
2023-02-23T13:22:26.279Z,12.93
2023-02-23T13:26:53.311Z,12.94
2023-02-23T13:30:55.973Z,12.93
2023-02-23T13:35:01.793Z,12.97
2023-02-23T13:39:27.251Z,13.01
2023-02-23T13:43:37.425Z,13.05
2023-02-23T13:47:49.493Z,13.00
2023-02-23T13:52:20.400Z,13.07
2023-02-23T13:56:25.664Z,13.20
2023-02-23T14:00:28.116Z,13.31
2023-02-23T14:04:54.842Z,13.36
2023-02-23T14:09:30.727Z,13.39
2023-02-23T14:13:58.800Z,13.35
2023-02-23T14:18:48.811Z,13.31
2023-02-23T14:57:09.444Z,13.32
2023-02-23T15:30:31.105Z,13.37
2023-02-23T15:34:32.832Z,13.34
2023-02-23T15:38:44.317Z,13.31
2023-02-23T15:43:29.263Z,13.29
2023-02-23T15:47:36.444Z,13.19
2023-02-23T15:51:48.380Z,13.04
2023-02-23T15:56:22.222Z,12.87
2023-02-23T16:00:50.694Z,12.68
2023-02-23T16:04:53.051Z,12.52
2023-02-23T16:09:23.463Z,12.35
2023-02-23T16:13:26.628Z,12.19
2023-02-23T16:17:30.353Z,12.08
2023-02-23T16:21:32.634Z,11.93
2023-02-23T16:25:34.753Z,11.77
2023-02-23T16:29:42.310Z,11.66
2023-02-23T16:33:52.236Z,11.56
2023-02-23T16:38:12.009Z,11.46
2023-02-23T16:42:26.207Z,11.42
2023-02-23T16:46:31.700Z,11.38
2023-02-23T16:50:35.702Z,11.36
2023-02-23T16:54:37.338Z,11.34
2023-02-23T16:58:41.949Z,11.35
2023-02-23T17:02:44.590Z,11.33
2023-02-23T17:06:52.207Z,11.28
2023-02-23T17:10:56.844Z,11.22
2023-02-23T17:14:59.355Z,11.13
2023-02-23T17:19:01.370Z,11.03
2023-02-23T17:23:03.500Z,10.92
2023-02-23T17:27:05.495Z,10.83
2023-02-23T17:31:07.783Z,10.63
2023-02-23T17:35:10.228Z,10.35
2023-02-23T17:39:13.553Z,10.18
2023-02-23T17:43:19.535Z,9.99
2023-02-23T17:47:21.512Z,9.89
2023-02-23T17:51:23.793Z,9.82
2023-02-23T17:55:25.679Z,9.86
2023-02-23T17:59:27.997Z,9.82
2023-02-23T18:03:32.700Z,9.85
2023-02-23T18:07:35.157Z,9.93
2023-02-23T18:11:37.187Z,9.96
2023-02-23T18:15:40.361Z,9.92
2023-02-23T18:19:54.304Z,9.89
2023-02-23T18:23:58.544Z,9.84
2023-02-23T18:28:00.569Z,9.83
2023-02-23T18:32:03.917Z,9.87
2023-02-23T18:36:27.555Z,9.92
2023-02-23T18:40:29.336Z,9.94
2023-02-23T18:44:32.895Z,9.94
2023-02-23T18:48:37.237Z,9.91
2023-02-23T18:52:40.290Z,9.77
2023-02-23T18:56:43.379Z,9.72
2023-02-23T19:00:46.105Z,9.71
2023-02-23T19:04:47.723Z,9.64
2023-02-23T19:08:53.459Z,9.51
2023-02-23T19:12:55.690Z,9.49
2023-02-23T19:16:57.485Z,9.53
2023-02-23T19:21:00.202Z,9.56
2023-02-23T19:25:02.286Z,9.58
2023-02-23T19:29:04.508Z,9.67
2023-02-23T19:33:06.650Z,9.72
2023-02-23T19:37:09.238Z,9.78
2023-02-23T19:41:14.831Z,9.77
2023-02-23T19:45:17.784Z,9.63
2023-02-23T19:49:20.920Z,9.62
2023-02-23T19:53:23.207Z,9.66
2023-02-23T19:57:24.862Z,9.79
2023-02-23T20:01:29.466Z,9.86
2023-02-23T20:05:41.652Z,9.96
2023-02-23T20:09:43.838Z,9.98
2023-02-23T20:13:46.764Z,10.01
2023-02-23T20:17:50.626Z,10.01
2023-02-23T20:21:56.976Z,10.08
2023-02-23T20:25:58.970Z,10.05
2023-02-23T20:30:01.648Z,10.04
2023-02-23T20:34:06.267Z,9.99
2023-02-23T20:38:08.121Z,10.02
2023-02-23T20:42:10.562Z,9.97
2023-02-23T20:46:14.203Z,9.91
2023-02-23T20:50:15.987Z,9.95
2023-02-23T20:54:17.833Z,10.04
2023-02-23T20:58:28.883Z,10.12
2023-02-23T21:02:30.946Z,10.15
2023-02-23T21:06:33.351Z,10.18
2023-02-23T21:10:38.044Z,10.12
2023-02-23T21:14:40.450Z,10.12
2023-02-23T21:18:43.494Z,10.10
2023-02-23T21:22:48.661Z,10.03
2023-02-23T21:26:51.032Z,10.06
2023-02-23T21:30:53.151Z,10.04
2023-02-23T21:34:55.060Z,10.04
2023-02-23T21:38:57.082Z,10.02
2023-02-23T21:43:00.650Z,10.02
2023-02-23T21:47:06.448Z,10.09
2023-02-23T21:51:11.395Z,10.18
2023-02-23T21:55:23.586Z,10.21
2023-02-23T21:59:25.478Z,10.22
2023-02-23T22:03:28.722Z,10.18
2023-02-23T22:07:31.826Z,10.14
2023-02-23T22:11:35.246Z,10.11
2023-02-23T22:15:37.970Z,10.10
2023-02-23T22:19:39.998Z,10.10
2023-02-23T22:23:43.287Z,10.13
2023-02-23T22:27:45.512Z,10.14
2023-02-23T22:31:47.396Z,10.18
2023-02-23T22:35:50.237Z,10.22
2023-02-23T22:39:52.153Z,10.20
2023-02-23T22:43:55.783Z,10.17
2023-02-23T22:48:00.969Z,10.13
2023-02-23T22:52:03.001Z,10.12
2023-02-23T22:56:05.463Z,10.14
2023-02-23T23:00:09.615Z,10.18
2023-02-23T23:04:11.839Z,10.27
2023-02-23T23:08:13.981Z,10.32
2023-02-23T23:12:17.470Z,10.39
2023-02-23T23:16:31.838Z,10.42
2023-02-23T23:20:34.498Z,10.31
2023-02-23T23:24:36.535Z,10.24
2023-02-23T23:28:39.901Z,10.17
2023-02-23T23:32:42.285Z,10.12
2023-02-23T23:36:45.966Z,10.12
2023-02-23T23:40:47.775Z,10.10
2023-02-23T23:44:50.256Z,10.09
2023-02-23T23:48:53.925Z,10.09
2023-02-23T23:52:56.423Z,10.07
2023-02-23T23:57:02.912Z,10.09
